createdAt,value
2023-02-23T00:02:05.819Z,44.63
2023-02-23T00:04:35.507Z,39.75
2023-02-23T00:07:05.747Z,38.65
2023-02-23T00:09:36.472Z,41.00
2023-02-23T00:12:09.443Z,35.52
2023-02-23T00:14:38.398Z,34.93
2023-02-23T00:17:11.775Z,34.00
2023-02-23T00:19:41.364Z,24.10
2023-02-23T00:22:09.327Z,23.15
2023-02-23T00:24:38.304Z,27.05
2023-02-23T00:27:05.985Z,21.00
2023-02-23T00:29:36.365Z,23.20
2023-02-23T00:32:04.647Z,23.90
2023-02-23T00:34:32.485Z,25.23
2023-02-23T00:37:00.218Z,25.05
2023-02-23T00:39:28.606Z,20.32
2023-02-23T00:41:59.321Z,23.22
2023-02-23T00:44:27.779Z,24.27
2023-02-23T00:46:55.489Z,23.70
2023-02-23T00:49:23.402Z,27.00
2023-02-23T00:51:51.737Z,27.27
2023-02-23T00:54:21.627Z,25.08
2023-02-23T00:56:50.630Z,21.57
2023-02-23T00:59:19.683Z,21.00
2023-02-23T01:01:48.001Z,17.60
2023-02-23T01:04:16.256Z,20.40
2023-02-23T01:06:45.740Z,22.87
2023-02-23T01:09:18.380Z,19.45
2023-02-23T01:11:46.295Z,30.32
2023-02-23T01:14:15.263Z,27.02
2023-02-23T01:16:42.751Z,24.12
2023-02-23T01:19:11.053Z,22.13
2023-02-23T01:21:41.663Z,26.85
2023-02-23T01:24:09.735Z,26.90
2023-02-23T01:26:43.901Z,26.48
2023-02-23T01:29:17.587Z,28.23
2023-02-23T01:31:50.613Z,23.57
2023-02-23T01:34:21.184Z,21.95
2023-02-23T01:36:49.478Z,14.73
2023-02-23T01:39:20.136Z,16.65
2023-02-23T01:41:48.169Z,22.32
2023-02-23T01:44:23.930Z,18.60
2023-02-23T01:46:52.464Z,24.67
2023-02-23T01:49:25.113Z,17.35
2023-02-23T01:51:58.296Z,26.97
2023-02-23T01:54:33.077Z,24.30
2023-02-23T01:57:03.742Z,24.40
2023-02-23T01:59:37.054Z,19.77
2023-02-23T02:04:45.431Z,15.38
2023-02-23T02:07:22.441Z,19.12
2023-02-23T02:10:12.682Z,17.35
2023-02-23T02:13:04.554Z,18.25
2023-02-23T02:15:38.467Z,17.82
2023-02-23T02:18:30.508Z,20.00
2023-02-23T02:21:20.858Z,19.17
2023-02-23T02:24:26.798Z,18.07
2023-02-23T02:27:16.974Z,25.80
2023-02-23T02:30:42.697Z,21.42
2023-02-23T02:33:43.362Z,38.25
2023-02-23T02:36:42.058Z,28.20
2023-02-23T02:39:36.141Z,25.12
2023-02-23T02:42:21.932Z,26.93
2023-02-23T02:45:07.200Z,25.88
2023-02-23T02:48:00.249Z,26.70
2023-02-23T02:50:51.998Z,24.92
2023-02-23T02:53:43.676Z,27.52
2023-02-23T02:56:16.102Z,32.42
2023-02-23T02:58:44.243Z,23.47
2023-02-23T03:01:34.962Z,24.77
2023-02-23T03:04:41.072Z,36.77
2023-02-23T03:07:35.787Z,26.75
2023-02-23T03:10:44.003Z,36.03
2023-02-23T03:14:15.538Z,29.90
2023-02-23T03:17:39.267Z,22.93
2023-02-23T03:20:45.327Z,28.60
2023-02-23T03:23:58.061Z,37.35
2023-02-23T03:26:52.513Z,25.75
2023-02-23T03:29:59.295Z,24.77
2023-02-23T03:32:58.091Z,26.73
2023-02-23T03:35:55.587Z,28.60
2023-02-23T03:38:49.884Z,25.17
2023-02-23T03:41:39.250Z,20.40
2023-02-23T03:44:37.257Z,22.50
2023-02-23T03:47:25.491Z,42.05
2023-02-23T03:50:14.478Z,26.05
2023-02-23T03:53:08.992Z,21.70
2023-02-23T03:55:59.970Z,22.67
2023-02-23T03:58:54.347Z,31.70
2023-02-23T04:01:42.810Z,29.05
2023-02-23T04:04:30.091Z,15.13
2023-02-23T04:07:21.096Z,12.75
2023-02-23T04:10:07.699Z,13.20
2023-02-23T04:13:14.606Z,14.68
2023-02-23T04:15:59.039Z,16.00
2023-02-23T04:18:30.150Z,13.45
2023-02-23T04:20:58.972Z,19.85
2023-02-23T04:23:27.529Z,22.10
2023-02-23T04:25:55.990Z,25.50
2023-02-23T04:28:26.316Z,48.83
2023-02-23T04:30:54.274Z,23.10
2023-02-23T04:33:23.614Z,23.12
2023-02-23T04:35:55.439Z,20.17
2023-02-23T04:38:23.923Z,24.45
2023-02-23T04:40:51.594Z,32.98
2023-02-23T04:43:19.940Z,38.30
2023-02-23T04:45:47.634Z,41.35
2023-02-23T04:48:15.350Z,52.93
2023-02-23T04:50:42.951Z,60.58
2023-02-23T04:53:10.792Z,51.05
2023-02-23T04:55:38.568Z,46.68
2023-02-23T04:58:09.741Z,36.48
2023-02-23T05:00:38.874Z,35.38
2023-02-23T05:03:06.773Z,34.85
2023-02-23T05:05:34.593Z,30.88
2023-02-23T05:08:02.522Z,62.10
2023-02-23T05:10:31.518Z,45.85
2023-02-23T05:13:00.571Z,38.85
2023-02-23T05:15:28.523Z,43.08
2023-02-23T05:17:57.235Z,42.30
2023-02-23T05:20:25.046Z,43.25
2023-02-23T05:22:52.618Z,39.75
2023-02-23T05:25:20.797Z,33.10
2023-02-23T05:27:48.311Z,34.08
2023-02-23T05:30:16.220Z,32.53
2023-02-23T05:32:47.058Z,31.12
2023-02-23T05:35:14.910Z,33.45
2023-02-23T05:37:42.426Z,32.58
2023-02-23T05:40:11.851Z,34.30
2023-02-23T05:42:39.725Z,37.38
2023-02-23T05:45:08.089Z,37.93
2023-02-23T05:47:37.709Z,48.00
2023-02-23T05:50:09.409Z,47.00
2023-02-23T05:52:41.527Z,47.43
2023-02-23T05:55:11.344Z,51.63
2023-02-23T05:57:40.628Z,48.17
2023-02-23T06:00:10.628Z,47.13
2023-02-23T06:02:39.543Z,42.60
2023-02-23T06:05:09.778Z,52.85
2023-02-23T06:07:37.657Z,52.40
2023-02-23T06:10:06.365Z,50.23
2023-02-23T06:12:33.828Z,50.38
2023-02-23T06:15:01.830Z,61.75
2023-02-23T06:17:30.351Z,56.08
2023-02-23T06:19:59.336Z,36.70
2023-02-23T06:22:27.152Z,36.45
2023-02-23T06:24:55.103Z,43.58
2023-02-23T06:27:22.715Z,40.10
2023-02-23T06:29:50.253Z,38.95
2023-02-23T06:32:17.916Z,34.80
2023-02-23T06:34:46.851Z,32.53
2023-02-23T06:37:14.637Z,30.30
2023-02-23T06:39:42.357Z,31.87
2023-02-23T06:42:10.401Z,32.40
2023-02-23T06:44:39.699Z,37.58
2023-02-23T06:47:07.275Z,37.90
2023-02-23T06:49:34.844Z,24.02
2023-02-23T06:52:02.363Z,25.62
2023-02-23T06:54:29.844Z,26.90
2023-02-23T06:56:57.294Z,28.50
2023-02-23T06:59:24.674Z,32.73
2023-02-23T07:01:52.429Z,26.20
2023-02-23T07:04:20.158Z,30.12
2023-02-23T07:06:47.837Z,27.05
2023-02-23T07:09:15.449Z,30.05
2023-02-23T07:11:46.667Z,30.10
2023-02-23T07:14:21.497Z,31.25
2023-02-23T07:16:44.054Z,26.82
2023-02-23T07:19:12.120Z,28.67
2023-02-23T07:21:39.732Z,30.32
2023-02-23T07:24:08.327Z,28.90
2023-02-23T07:26:36.280Z,31.07
2023-02-23T07:29:04.148Z,32.17
2023-02-23T07:31:31.788Z,32.00
2023-02-23T07:33:59.560Z,29.55
2023-02-23T07:36:27.055Z,31.15
2023-02-23T07:38:55.142Z,32.25
2023-02-23T07:41:23.073Z,30.85
2023-02-23T07:43:50.954Z,49.83
2023-02-23T07:46:18.652Z,47.38
2023-02-23T07:48:46.671Z,39.67
2023-02-23T07:51:17.236Z,35.88
2023-02-23T07:53:45.969Z,25.72
2023-02-23T07:56:13.524Z,23.38
2023-02-23T07:58:43.647Z,21.15
2023-02-23T08:01:13.194Z,22.52
2023-02-23T08:03:41.200Z,23.07
2023-02-23T08:06:08.942Z,24.85
2023-02-23T08:08:36.565Z,29.72
2023-02-23T08:11:05.441Z,26.35
2023-02-23T08:13:33.462Z,21.68
2023-02-23T08:16:00.994Z,22.70
2023-02-23T08:18:28.763Z,21.00
2023-02-23T08:21:04.372Z,26.20
2023-02-23T08:23:33.637Z,19.62
2023-02-23T08:26:01.990Z,21.68
2023-02-23T08:28:30.427Z,22.10
2023-02-23T08:30:59.046Z,23.25
2023-02-23T08:33:27.223Z,21.90
2023-02-23T08:35:54.984Z,25.12
2023-02-23T08:38:22.359Z,19.82
2023-02-23T08:40:49.867Z,18.82
2023-02-23T08:43:17.537Z,20.30
2023-02-23T08:45:45.621Z,18.25
2023-02-23T08:48:13.583Z,15.70
2023-02-23T08:50:41.253Z,15.88
2023-02-23T08:53:08.878Z,16.02
2023-02-23T08:55:38.452Z,16.02
2023-02-23T08:58:10.196Z,17.98
2023-02-23T09:00:38.444Z,16.70
2023-02-23T09:03:07.098Z,13.62
2023-02-23T09:05:38.272Z,16.80
2023-02-23T09:08:06.617Z,18.15
2023-02-23T09:10:35.743Z,10.98
2023-02-23T09:13:03.710Z,13.00
2023-02-23T09:15:31.290Z,12.20
2023-02-23T09:18:02.223Z,15.48
2023-02-23T09:20:29.909Z,12.55
2023-02-23T09:22:57.759Z,12.85
2023-02-23T09:25:26.673Z,12.05
2023-02-23T09:27:56.527Z,15.80
2023-02-23T09:30:24.225Z,13.48
2023-02-23T09:32:53.930Z,40.55
2023-02-23T09:35:24.186Z,13.85
2023-02-23T09:37:55.356Z,15.00
2023-02-23T09:40:30.226Z,11.43
2023-02-23T09:43:12.356Z,11.78
2023-02-23T09:45:45.571Z,12.20
2023-02-23T09:48:20.496Z,18.10
2023-02-23T09:50:52.262Z,18.98
2023-02-23T09:53:52.661Z,15.10
2023-02-23T09:56:36.555Z,14.87
2023-02-23T09:59:15.093Z,12.07
2023-02-23T10:02:25.119Z,15.80
2023-02-23T10:05:09.250Z,13.20
2023-02-23T10:07:50.726Z,11.95
2023-02-23T10:10:41.830Z,14.28
2023-02-23T10:13:32.874Z,13.75
2023-02-23T10:16:29.982Z,12.55
2023-02-23T10:19:27.175Z,11.35
2023-02-23T10:22:00.727Z,12.70
2023-02-23T10:24:36.447Z,11.22
2023-02-23T10:27:12.318Z,10.25
2023-02-23T10:29:51.205Z,11.75
2023-02-23T10:32:38.663Z,10.88
2023-02-23T10:35:14.357Z,8.65
2023-02-23T10:37:42.005Z,10.28
2023-02-23T10:40:22.597Z,13.78
2023-02-23T10:42:52.170Z,9.00
2023-02-23T10:45:24.539Z,8.13
2023-02-23T10:48:00.400Z,9.78
2023-02-23T10:50:30.516Z,10.18
2023-02-23T10:53:06.370Z,7.92
2023-02-23T10:55:34.117Z,8.63
2023-02-23T10:58:18.038Z,5.47
2023-02-23T11:01:02.043Z,7.78
2023-02-23T11:03:57.719Z,5.33
2023-02-23T11:06:37.844Z,8.33
2023-02-23T11:09:20.533Z,6.95
2023-02-23T11:11:59.094Z,6.95
2023-02-23T11:14:29.338Z,7.00
2023-02-23T11:16:59.416Z,4.72
2023-02-23T11:19:36.828Z,6.05
2023-02-23T11:22:06.761Z,7.90
2023-02-23T11:24:39.513Z,5.92
2023-02-23T11:27:18.926Z,7.47
2023-02-23T11:29:50.372Z,7.25
2023-02-23T11:32:29.951Z,6.95
2023-02-23T11:35:18.362Z,6.12
2023-02-23T11:37:46.733Z,5.45
2023-02-23T11:40:28.090Z,7.92
2023-02-23T11:43:09.565Z,6.47
2023-02-23T11:45:45.338Z,9.48
2023-02-23T11:48:35.168Z,6.72
2023-02-23T11:51:04.674Z,4.47
2023-02-23T11:53:43.622Z,3.58
2023-02-23T11:56:12.008Z,4.45
2023-02-23T11:58:46.709Z,4.60
2023-02-23T12:01:18.269Z,3.37
2023-02-23T12:03:55.935Z,4.05
2023-02-23T12:06:39.805Z,3.20
2023-02-23T12:09:30.872Z,3.37
2023-02-23T12:12:12.952Z,4.17
2023-02-23T12:14:55.226Z,4.17
2023-02-23T12:17:33.530Z,4.72
2023-02-23T12:20:08.596Z,9.00
2023-02-23T12:22:42.560Z,4.87
2023-02-23T12:25:34.965Z,5.83
2023-02-23T12:28:35.785Z,4.95
2023-02-23T12:31:17.453Z,5.30
2023-02-23T12:33:57.466Z,4.42
2023-02-23T12:36:31.493Z,4.67
2023-02-23T12:39:29.691Z,5.97
2023-02-23T12:42:27.854Z,5.03
2023-02-23T12:45:12.028Z,3.92
2023-02-23T12:48:04.703Z,4.92
2023-02-23T12:50:45.408Z,3.00
2023-02-23T12:53:31.082Z,3.67
2023-02-23T12:56:35.014Z,4.83
2023-02-23T12:59:24.693Z,4.87
2023-02-23T13:02:14.731Z,4.25
2023-02-23T13:05:10.381Z,3.98
2023-02-23T13:08:21.537Z,3.62
2023-02-23T13:11:25.078Z,3.90
2023-02-23T13:14:20.371Z,5.10
2023-02-23T13:16:56.956Z,5.60
2023-02-23T13:19:49.927Z,6.15
2023-02-23T13:22:53.422Z,3.92
2023-02-23T13:25:33.417Z,5.57
2023-02-23T13:28:03.346Z,4.20
2023-02-23T13:30:31.945Z,4.62
2023-02-23T13:33:05.274Z,4.33
2023-02-23T13:35:35.453Z,3.72
2023-02-23T13:38:36.087Z,5.30
2023-02-23T13:41:31.761Z,4.42
2023-02-23T13:44:42.592Z,5.10
2023-02-23T13:47:44.979Z,5.80
2023-02-23T13:50:24.040Z,3.50
2023-02-23T13:52:58.231Z,4.85
2023-02-23T13:55:47.060Z,2.90
2023-02-23T13:58:15.439Z,4.80
2023-02-23T14:00:47.619Z,5.90
2023-02-23T14:03:28.530Z,5.92
2023-02-23T14:06:00.278Z,3.90
2023-02-23T14:08:36.166Z,5.17
2023-02-23T14:11:05.784Z,4.00
2023-02-23T14:13:39.796Z,4.53
2023-02-23T14:16:17.655Z,4.33
2023-02-23T14:19:05.974Z,4.00
2023-02-23T14:21:51.834Z,4.08
2023-02-23T14:24:28.098Z,4.50
2023-02-23T14:27:41.452Z,3.70
2023-02-23T14:30:12.064Z,4.08
2023-02-23T14:32:46.023Z,14.47
2023-02-23T14:35:37.448Z,29.30
2023-02-23T14:38:19.257Z,7.58
2023-02-23T14:40:49.251Z,23.80
2023-02-23T14:43:41.692Z,10.75
2023-02-23T14:46:23.653Z,8.03
2023-02-23T14:49:09.436Z,5.65
2023-02-23T14:51:55.281Z,5.58
2023-02-23T14:54:31.332Z,6.08
2023-02-23T14:57:04.205Z,6.10
2023-02-23T14:59:42.731Z,7.10
2023-02-23T15:02:18.263Z,6.25
2023-02-23T15:04:47.152Z,8.45
2023-02-23T15:07:22.115Z,15.25
2023-02-23T15:09:53.622Z,8.43
2023-02-23T15:12:32.186Z,7.20
2023-02-23T15:15:09.591Z,9.85
2023-02-23T15:17:41.260Z,10.85
2023-02-23T15:20:17.235Z,11.78
2023-02-23T15:22:54.710Z,49.45
2023-02-23T15:25:27.492Z,26.30
2023-02-23T15:27:55.470Z,15.37
2023-02-23T15:30:32.139Z,11.55
2023-02-23T15:33:06.282Z,13.50
2023-02-23T15:35:44.591Z,14.70
2023-02-23T15:38:42.264Z,24.05
2023-02-23T15:40:59.480Z,33.28
2023-02-23T15:43:29.267Z,29.82
2023-02-23T15:46:03.121Z,50.28
2023-02-23T15:48:47.226Z,32.30
2023-02-23T15:51:22.326Z,28.52
2023-02-23T15:53:50.718Z,28.62
2023-02-23T15:56:29.887Z,37.88
2023-02-23T15:59:05.048Z,35.03
2023-02-23T16:01:32.955Z,37.23
2023-02-23T16:04:15.178Z,29.02
2023-02-23T16:06:57.547Z,42.73
2023-02-23T16:09:29.140Z,43.17
2023-02-23T16:12:03.733Z,47.53
2023-02-23T16:14:46.771Z,56.05
2023-02-23T16:17:26.397Z,58.17
2023-02-23T16:20:29.663Z,54.77
2023-02-23T16:22:58.432Z,53.40
2023-02-23T16:25:28.921Z,46.98
2023-02-23T16:28:09.730Z,51.28
2023-02-23T16:30:44.396Z,50.98
2023-02-23T16:33:29.648Z,56.92
2023-02-23T16:36:18.470Z,59.18
2023-02-23T16:39:02.721Z,88.05
2023-02-23T16:41:33.285Z,107.95
2023-02-23T16:44:04.568Z,91.78
2023-02-23T16:46:43.386Z,79.67
2023-02-23T16:49:12.562Z,63.80
2023-02-23T16:51:40.573Z,55.98
2023-02-23T16:54:08.543Z,67.78
2023-02-23T16:56:39.163Z,58.38
2023-02-23T16:59:10.494Z,50.03
2023-02-23T17:01:38.023Z,49.38
2023-02-23T17:04:15.726Z,67.72
2023-02-23T17:06:46.123Z,75.65
2023-02-23T17:09:13.859Z,75.65
2023-02-23T17:11:43.980Z,78.12
2023-02-23T17:14:20.088Z,82.85
2023-02-23T17:16:47.693Z,82.02
2023-02-23T17:19:15.425Z,71.33
2023-02-23T17:21:42.953Z,44.08
2023-02-23T17:24:10.489Z,52.15
2023-02-23T17:26:39.278Z,55.38
2023-02-23T17:29:06.969Z,62.95
2023-02-23T17:31:35.640Z,63.23
2023-02-23T17:34:03.748Z,86.28
2023-02-23T17:36:31.430Z,73.45
2023-02-23T17:38:59.305Z,99.55
2023-02-23T17:41:27.471Z,112.32
2023-02-23T17:43:55.465Z,108.80
2023-02-23T17:46:23.469Z,104.60
2023-02-23T17:48:52.413Z,91.67
2023-02-23T17:51:21.243Z,75.55
2023-02-23T17:53:49.044Z,93.35
2023-02-23T17:56:17.418Z,68.75
2023-02-23T17:58:45.597Z,68.72
2023-02-23T18:01:13.366Z,27.07
2023-02-23T18:03:41.109Z,14.87
2023-02-23T18:06:11.544Z,19.85
2023-02-23T18:08:41.804Z,15.48
2023-02-23T18:11:10.093Z,13.93
2023-02-23T18:13:37.811Z,44.10
2023-02-23T18:16:09.727Z,64.00
2023-02-23T18:18:40.769Z,58.87
2023-02-23T18:21:16.353Z,67.58
2023-02-23T18:23:44.015Z,72.53
2023-02-23T18:26:19.278Z,78.20
2023-02-23T18:28:47.120Z,83.50
2023-02-23T18:31:18.987Z,83.85
2023-02-23T18:33:49.336Z,66.07
2023-02-23T18:36:27.744Z,75.60
2023-02-23T18:38:57.737Z,92.67
2023-02-23T18:41:27.517Z,105.40
2023-02-23T18:43:55.118Z,95.77
2023-02-23T18:46:22.955Z,85.20
2023-02-23T18:48:53.491Z,69.25
2023-02-23T18:51:23.150Z,59.03
2023-02-23T18:53:52.220Z,55.88
2023-02-23T18:56:26.146Z,56.20
2023-02-23T18:59:01.148Z,57.55
2023-02-23T19:01:32.970Z,58.78
2023-02-23T19:04:04.254Z,65.80
2023-02-23T19:06:33.055Z,59.63
2023-02-23T19:09:03.469Z,54.55
2023-02-23T19:11:33.699Z,42.00
2023-02-23T19:14:05.536Z,37.63
2023-02-23T19:16:35.814Z,37.58
2023-02-23T19:19:06.245Z,36.23
2023-02-23T19:21:34.408Z,34.73
2023-02-23T19:24:05.396Z,33.00
2023-02-23T19:26:35.428Z,31.23
2023-02-23T19:29:03.324Z,28.77
2023-02-23T19:31:31.870Z,28.05
2023-02-23T19:34:01.708Z,25.40
2023-02-23T19:36:31.108Z,22.25
2023-02-23T19:39:08.126Z,29.60
2023-02-23T19:41:38.164Z,24.67
2023-02-23T19:44:07.927Z,29.40
2023-02-23T19:46:36.823Z,29.00
2023-02-23T19:49:04.621Z,31.27
2023-02-23T19:51:32.905Z,31.70
2023-02-23T19:54:00.530Z,30.65
2023-02-23T19:56:29.167Z,51.02
2023-02-23T19:58:57.603Z,37.45
2023-02-23T20:01:27.228Z,28.62
2023-02-23T20:03:59.498Z,30.52
2023-02-23T20:06:31.480Z,33.30
2023-02-23T20:09:00.902Z,43.73
2023-02-23T20:11:31.076Z,45.00
2023-02-23T20:14:01.540Z,45.98
2023-02-23T20:16:29.069Z,49.88
2023-02-23T20:19:00.470Z,41.85
2023-02-23T20:21:30.925Z,36.45
2023-02-23T20:24:01.077Z,31.50
2023-02-23T20:26:34.712Z,27.37
2023-02-23T20:29:08.149Z,26.65
2023-02-23T20:34:10.236Z,31.55
2023-02-23T20:36:39.535Z,37.98
2023-02-23T20:39:09.068Z,26.70
2023-02-23T20:41:36.773Z,31.62
2023-02-23T20:44:05.203Z,27.32
2023-02-23T20:46:32.719Z,30.32
2023-02-23T20:49:00.321Z,40.00
2023-02-23T20:51:29.889Z,48.58
2023-02-23T20:53:57.622Z,49.10
2023-02-23T20:56:27.446Z,51.15
2023-02-23T20:58:55.443Z,57.05
2023-02-23T21:01:25.748Z,45.40
2023-02-23T21:03:56.380Z,40.33
2023-02-23T21:06:25.472Z,34.83
2023-02-23T21:08:58.602Z,32.00
2023-02-23T21:11:26.320Z,29.90
2023-02-23T21:13:53.906Z,31.42
2023-02-23T21:16:23.108Z,27.95
2023-02-23T21:18:54.593Z,30.02
2023-02-23T21:21:22.746Z,54.80
2023-02-23T21:23:50.692Z,49.23
2023-02-23T21:26:20.044Z,41.65
2023-02-23T21:28:48.600Z,47.45
2023-02-23T21:31:16.729Z,29.37
2023-02-23T21:33:45.217Z,30.05
2023-02-23T21:36:12.884Z,25.75
2023-02-23T21:38:43.462Z,24.92
2023-02-23T21:41:13.359Z,30.25
2023-02-23T21:43:44.159Z,40.15
2023-02-23T21:46:15.530Z,40.15
2023-02-23T21:48:44.529Z,36.30
2023-02-23T21:51:15.469Z,44.88
2023-02-23T21:53:46.048Z,43.15
2023-02-23T21:56:20.740Z,36.28
2023-02-23T21:58:52.210Z,38.48
2023-02-23T22:01:29.727Z,37.23
2023-02-23T22:03:58.417Z,34.05
2023-02-23T22:06:30.234Z,36.60
2023-02-23T22:08:58.182Z,40.63
2023-02-23T22:11:27.982Z,36.35
2023-02-23T22:13:59.284Z,28.55
2023-02-23T22:16:32.248Z,24.37
2023-02-23T22:19:01.667Z,22.67
2023-02-23T22:21:33.506Z,23.75
2023-02-23T22:24:03.738Z,24.52
2023-02-23T22:26:38.952Z,25.55
2023-02-23T22:29:09.475Z,28.12
2023-02-23T22:31:38.078Z,28.80
2023-02-23T22:34:06.707Z,29.42
2023-02-23T22:36:34.776Z,33.58
2023-02-23T22:39:06.053Z,29.90
2023-02-23T22:41:35.625Z,29.02
2023-02-23T22:44:03.326Z,33.75
2023-02-23T22:46:31.998Z,34.20
2023-02-23T22:48:59.677Z,37.40
2023-02-23T22:51:27.063Z,33.33
2023-02-23T22:53:54.762Z,34.85
2023-02-23T22:56:23.076Z,31.48
2023-02-23T22:58:55.415Z,31.50
2023-02-23T23:01:25.046Z,31.37
2023-02-23T23:03:52.611Z,30.90
2023-02-23T23:06:23.093Z,31.07
2023-02-23T23:08:56.269Z,33.35
2023-02-23T23:11:29.296Z,36.65
2023-02-23T23:14:02.573Z,42.03
2023-02-23T23:16:34.135Z,43.30
2023-02-23T23:19:10.715Z,33.30
2023-02-23T23:21:41.890Z,36.10
2023-02-23T23:24:13.852Z,32.75
2023-02-23T23:26:43.645Z,34.35
2023-02-23T23:29:15.026Z,32.33
2023-02-23T23:31:46.105Z,32.83
2023-02-23T23:34:19.687Z,32.93
2023-02-23T23:36:48.903Z,34.08
2023-02-23T23:39:19.750Z,34.18
2023-02-23T23:41:49.301Z,40.85
2023-02-23T23:44:23.461Z,47.30
2023-02-23T23:46:52.194Z,56.02
2023-02-23T23:49:24.677Z,41.00
2023-02-23T23:51:55.664Z,39.88
2023-02-23T23:54:28.505Z,41.75
2023-02-23T23:56:58.215Z,48.17
2023-02-23T23:59:27.011Z,48.42
